sensor_id;sensor_type;location;lat;lon;timestamp;temperature;humidity
52471;DHT22;38382;53.160;7.026;2022-12-18T00:01:05;-4.10;99.90
52471;DHT22;38382;53.160;7.026;2022-12-18T00:03:35;-4.10;99.90
52471;DHT22;38382;53.160;7.026;2022-12-18T00:06:01;-4.10;99.90
52471;DHT22;38382;53.160;7.026;2022-12-18T00:08:27;-4.10;99.90
52471;DHT22;38382;53.160;7.026;2022-12-18T00:11:10;-3.50;99.90
52471;DHT22;38382;53.160;7.026;2022-12-18T00:13:36;-4.00;99.90
52471;DHT22;38382;53.160;7.026;2022-12-18T00:16:04;-4.10;99.90
52471;DHT22;38382;53.160;7.026;2022-12-18T00:18:31;-4.00;99.90
52471;DHT22;38382;53.160;7.026;2022-12-18T00:21:05;-4.00;99.90
52471;DHT22;38382;53.160;7.026;2022-12-18T00:23:32;-4.00;99.90
52471;DHT22;38382;53.160;7.026;2022-12-18T00:26:00;-4.20;99.90
52471;DHT22;38382;53.160;7.026;2022-12-18T00:28:25;-2.30;99.90
52471;DHT22;38382;53.160;7.026;2022-12-18T00:31:09;-4.10;99.90
52471;DHT22;38382;53.160;7.026;2022-12-18T00:33:35;-2.70;99.90
52471;DHT22;38382;53.160;7.026;2022-12-18T00:36:02;-3.40;99.90
52471;DHT22;38382;53.160;7.026;2022-12-18T00:38:28;-2.90;99.90
52471;DHT22;38382;53.160;7.026;2022-12-18T00:40:54;-4.10;99.90
52471;DHT22;38382;53.160;7.026;2022-12-18T00:43:20;-4.10;99.90
52471;DHT22;38382;53.160;7.026;2022-12-18T00:45:45;-3.60;99.90
52471;DHT22;38382;53.160;7.026;2022-12-18T00:48:11;-2.20;99.90
52471;DHT22;38382;53.160;7.026;2022-12-18T00:53:03;-4.10;99.90
52471;DHT22;38382;53.160;7.026;2022-12-18T00:55:29;-4.10;99.90
52471;DHT22;38382;53.160;7.026;2022-12-18T00:57:55;-3.60;99.90
52471;DHT22;38382;53.160;7.026;2022-12-18T01:00:21;-4.20;99.90
52471;DHT22;38382;53.160;7.026;2022-12-18T01:02:47;-4.20;99.90
52471;DHT22;38382;53.160;7.026;2022-12-18T01:05:14;-3.00;99.90
52471;DHT22;38382;53.160;7.026;2022-12-18T01:07:40;-4.30;99.90
52471;DHT22;38382;53.160;7.026;2022-12-18T01:10:07;-4.40;99.90
52471;DHT22;38382;53.160;7.026;2022-12-18T01:12:34;-4.30;99.90
52471;DHT22;38382;53.160;7.026;2022-12-18T01:15:01;-4.40;99.90
52471;DHT22;38382;53.160;7.026;2022-12-18T01:17:26;-4.40;99.90
52471;DHT22;38382;53.160;7.026;2022-12-18T01:19:53;-4.40;99.90
52471;DHT22;38382;53.160;7.026;2022-12-18T01:22:19;-4.40;99.90
52471;DHT22;38382;53.160;7.026;2022-12-18T01:24:46;-4.40;99.90
52471;DHT22;38382;53.160;7.026;2022-12-18T01:27:11;-4.40;99.90
52471;DHT22;38382;53.160;7.026;2022-12-18T01:29:37;-4.40;99.90
52471;DHT22;38382;53.160;7.026;2022-12-18T01:32:03;-4.40;99.90
52471;DHT22;38382;53.160;7.026;2022-12-18T01:34:29;-4.40;99.90
52471;DHT22;38382;53.160;7.026;2022-12-18T01:36:54;-4.40;99.90
52471;DHT22;38382;53.160;7.026;2022-12-18T01:39:21;-4.40;99.90
52471;DHT22;38382;53.160;7.026;2022-12-18T01:41:46;-2.50;99.90
52471;DHT22;38382;53.160;7.026;2022-12-18T01:44:57;-4.40;99.90
52471;DHT22;38382;53.160;7.026;2022-12-18T01:52:33;-2.70;99.90
52471;DHT22;38382;53.160;7.026;2022-12-18T01:55:00;-4.50;99.90
52471;DHT22;38382;53.160;7.026;2022-12-18T01:57:27;-4.50;99.90
52471;DHT22;38382;53.160;7.026;2022-12-18T01:59:57;-4.50;99.90
52471;DHT22;38382;53.160;7.026;2022-12-18T02:02:27;-4.50;99.90
52471;DHT22;38382;53.160;7.026;2022-12-18T02:04:54;-4.60;99.90
52471;DHT22;38382;53.160;7.026;2022-12-18T02:07:38;-4.60;99.90
52471;DHT22;38382;53.160;7.026;2022-12-18T02:10:19;-4.60;99.90
52471;DHT22;38382;53.160;7.026;2022-12-18T02:15:29;-4.70;99.90
52471;DHT22;38382;53.160;7.026;2022-12-18T02:18:11;-4.70;99.90
52471;DHT22;38382;53.160;7.026;2022-12-18T02:20:47;-4.70;99.90
52471;DHT22;38382;53.160;7.026;2022-12-18T02:23:37;-4.50;99.90
52471;DHT22;38382;53.160;7.026;2022-12-18T02:31:28;-4.80;99.90
52471;DHT22;38382;53.160;7.026;2022-12-18T02:34:00;-3.40;99.90
52471;DHT22;38382;53.160;7.026;2022-12-18T02:36:28;-4.90;99.90
52471;DHT22;38382;53.160;7.026;2022-12-18T02:39:02;-4.90;99.90
52471;DHT22;38382;53.160;7.026;2022-12-18T02:41:29;-3.10;99.90
52471;DHT22;38382;53.160;7.026;2022-12-18T02:43:57;-5.00;99.90
52471;DHT22;38382;53.160;7.026;2022-12-18T02:48:57;-5.10;99.90
52471;DHT22;38382;53.160;7.026;2022-12-18T02:54:34;-5.20;99.90
52471;DHT22;38382;53.160;7.026;2022-12-18T02:57:15;-5.20;99.90
52471;DHT22;38382;53.160;7.026;2022-12-18T02:59:54;-5.20;99.90
52471;DHT22;38382;53.160;7.026;2022-12-18T03:02:27;-5.30;99.90
52471;DHT22;38382;53.160;7.026;2022-12-18T03:05:15;-5.30;99.90
52471;DHT22;38382;53.160;7.026;2022-12-18T03:07:53;-5.40;99.90
52471;DHT22;38382;53.160;7.026;2022-12-18T03:10:25;-5.40;99.90
52471;DHT22;38382;53.160;7.026;2022-12-18T03:13:39;-5.40;99.90
52471;DHT22;38382;53.160;7.026;2022-12-18T03:15:47;-3.60;99.90
52471;DHT22;38382;53.160;7.026;2022-12-18T03:18:19;-5.50;99.90
52471;DHT22;38382;53.160;7.026;2022-12-18T03:20:48;-5.50;99.90
52471;DHT22;38382;53.160;7.026;2022-12-18T03:23:18;-5.60;99.90
52471;DHT22;38382;53.160;7.026;2022-12-18T03:25:47;-3.40;99.90
52471;DHT22;38382;53.160;7.026;2022-12-18T03:28:20;-3.90;99.90
52471;DHT22;38382;53.160;7.026;2022-12-18T03:30:49;-5.70;99.90
52471;DHT22;38382;53.160;7.026;2022-12-18T03:36:05;-5.70;99.90
52471;DHT22;38382;53.160;7.026;2022-12-18T03:38:30;-4.50;99.90
52471;DHT22;38382;53.160;7.026;2022-12-18T03:41:06;-5.80;99.90
52471;DHT22;38382;53.160;7.026;2022-12-18T03:43:50;-3.50;99.90
52471;DHT22;38382;53.160;7.026;2022-12-18T03:46:30;-5.90;99.90
52471;DHT22;38382;53.160;7.026;2022-12-18T03:49:09;-6.00;99.90
52471;DHT22;38382;53.160;7.026;2022-12-18T03:51:51;-5.90;99.90
52471;DHT22;38382;53.160;7.026;2022-12-18T03:54:19;-5.90;99.90
52471;DHT22;38382;53.160;7.026;2022-12-18T03:56:56;-6.00;99.90
52471;DHT22;38382;53.160;7.026;2022-12-18T03:59:24;-6.00;99.90
52471;DHT22;38382;53.160;7.026;2022-12-18T04:01:52;-6.00;99.90
52471;DHT22;38382;53.160;7.026;2022-12-18T04:04:19;-6.10;99.90
52471;DHT22;38382;53.160;7.026;2022-12-18T04:06:46;-6.10;99.90
52471;DHT22;38382;53.160;7.026;2022-12-18T04:09:14;-6.10;99.90
52471;DHT22;38382;53.160;7.026;2022-12-18T04:11:41;-6.10;99.90
52471;DHT22;38382;53.160;7.026;2022-12-18T04:14:09;-6.10;99.90
52471;DHT22;38382;53.160;7.026;2022-12-18T04:16:35;-6.10;99.90
52471;DHT22;38382;53.160;7.026;2022-12-18T04:19:01;-6.20;99.90
52471;DHT22;38382;53.160;7.026;2022-12-18T04:21:26;-6.20;99.90
52471;DHT22;38382;53.160;7.026;2022-12-18T04:23:52;-6.20;99.90
52471;DHT22;38382;53.160;7.026;2022-12-18T04:26:18;-6.30;99.90
52471;DHT22;38382;53.160;7.026;2022-12-18T04:28:43;-6.30;99.90
52471;DHT22;38382;53.160;7.026;2022-12-18T04:31:09;-6.30;99.90
52471;DHT22;38382;53.160;7.026;2022-12-18T04:33:35;-6.30;99.90
52471;DHT22;38382;53.160;7.026;2022-12-18T04:36:01;-6.40;99.90
52471;DHT22;38382;53.160;7.026;2022-12-18T04:38:32;-6.40;99.90
52471;DHT22;38382;53.160;7.026;2022-12-18T04:40:58;-6.50;99.90
52471;DHT22;38382;53.160;7.026;2022-12-18T04:43:24;-6.40;99.90
52471;DHT22;38382;53.160;7.026;2022-12-18T04:45:49;-6.50;99.90
52471;DHT22;38382;53.160;7.026;2022-12-18T04:48:15;-6.40;99.90
52471;DHT22;38382;53.160;7.026;2022-12-18T04:50:41;-6.50;99.90
52471;DHT22;38382;53.160;7.026;2022-12-18T04:53:06;-6.50;99.90
52471;DHT22;38382;53.160;7.026;2022-12-18T04:55:32;-6.50;99.90
52471;DHT22;38382;53.160;7.026;2022-12-18T04:57:58;-6.50;99.90
52471;DHT22;38382;53.160;7.026;2022-12-18T05:00:24;-6.50;99.90
52471;DHT22;38382;53.160;7.026;2022-12-18T05:02:50;-6.60;99.90
52471;DHT22;38382;53.160;7.026;2022-12-18T05:05:16;-6.50;99.90
52471;DHT22;38382;53.160;7.026;2022-12-18T05:07:42;-6.50;99.90
52471;DHT22;38382;53.160;7.026;2022-12-18T05:10:08;-6.60;99.90
52471;DHT22;38382;53.160;7.026;2022-12-18T05:12:34;-6.50;99.90
52471;DHT22;38382;53.160;7.026;2022-12-18T05:15:20;-6.50;99.90
52471;DHT22;38382;53.160;7.026;2022-12-18T05:17:45;-6.50;99.90
52471;DHT22;38382;53.160;7.026;2022-12-18T05:20:11;-6.60;99.90
52471;DHT22;38382;53.160;7.026;2022-12-18T05:22:37;-6.60;99.90
52471;DHT22;38382;53.160;7.026;2022-12-18T05:25:02;-5.70;99.90
52471;DHT22;38382;53.160;7.026;2022-12-18T05:27:28;-6.50;99.90
52471;DHT22;38382;53.160;7.026;2022-12-18T05:29:54;-6.60;99.90
52471;DHT22;38382;53.160;7.026;2022-12-18T05:32:19;-6.50;99.90
52471;DHT22;38382;53.160;7.026;2022-12-18T05:34:45;-6.60;99.90
52471;DHT22;38382;53.160;7.026;2022-12-18T05:37:11;-6.50;99.90
52471;DHT22;38382;53.160;7.026;2022-12-18T05:39:37;-5.20;99.90
52471;DHT22;38382;53.160;7.026;2022-12-18T05:42:02;-6.50;99.90
52471;DHT22;38382;53.160;7.026;2022-12-18T05:44:28;-6.50;99.90
52471;DHT22;38382;53.160;7.026;2022-12-18T05:46:54;-6.60;99.90
52471;DHT22;38382;53.160;7.026;2022-12-18T05:49:19;-6.60;99.90
52471;DHT22;38382;53.160;7.026;2022-12-18T05:51:45;-6.60;99.90
52471;DHT22;38382;53.160;7.026;2022-12-18T05:54:11;-6.60;99.90
52471;DHT22;38382;53.160;7.026;2022-12-18T05:56:40;-6.60;99.90
52471;DHT22;38382;53.160;7.026;2022-12-18T05:59:05;-6.60;99.90
52471;DHT22;38382;53.160;7.026;2022-12-18T06:01:31;-6.70;99.90
52471;DHT22;38382;53.160;7.026;2022-12-18T06:03:57;-6.70;99.90
52471;DHT22;38382;53.160;7.026;2022-12-18T06:06:25;-6.70;99.90
52471;DHT22;38382;53.160;7.026;2022-12-18T06:08:52;-6.20;99.90
52471;DHT22;38382;53.160;7.026;2022-12-18T06:11:20;-6.70;99.90
52471;DHT22;38382;53.160;7.026;2022-12-18T06:13:49;-6.80;99.90
52471;DHT22;38382;53.160;7.026;2022-12-18T06:16:14;-6.80;99.90
52471;DHT22;38382;53.160;7.026;2022-12-18T06:18:40;-6.70;99.90
52471;DHT22;38382;53.160;7.026;2022-12-18T06:21:06;-6.80;99.90
52471;DHT22;38382;53.160;7.026;2022-12-18T06:23:32;-6.80;99.90
52471;DHT22;38382;53.160;7.026;2022-12-18T06:25:58;-6.80;99.90
52471;DHT22;38382;53.160;7.026;2022-12-18T06:28:24;-6.70;99.90
52471;DHT22;38382;53.160;7.026;2022-12-18T06:30:50;-6.80;99.90
52471;DHT22;38382;53.160;7.026;2022-12-18T06:33:16;-6.80;99.90
52471;DHT22;38382;53.160;7.026;2022-12-18T06:35:42;-7.10;99.90
52471;DHT22;38382;53.160;7.026;2022-12-18T06:38:08;-5.80;99.90
52471;DHT22;38382;53.160;7.026;2022-12-18T06:40:34;-6.90;99.90
52471;DHT22;38382;53.160;7.026;2022-12-18T06:42:59;-6.80;99.90
52471;DHT22;38382;53.160;7.026;2022-12-18T06:45:25;-6.80;99.90
52471;DHT22;38382;53.160;7.026;2022-12-18T06:47:51;-6.90;99.90
52471;DHT22;38382;53.160;7.026;2022-12-18T06:50:17;-6.90;99.90
52471;DHT22;38382;53.160;7.026;2022-12-18T06:52:42;-6.90;99.90
52471;DHT22;38382;53.160;7.026;2022-12-18T06:55:10;-6.90;99.90
52471;DHT22;38382;53.160;7.026;2022-12-18T06:57:36;-6.90;99.90
52471;DHT22;38382;53.160;7.026;2022-12-18T07:00:04;-7.10;99.90
52471;DHT22;38382;53.160;7.026;2022-12-18T07:02:30;-6.90;99.90
52471;DHT22;38382;53.160;7.026;2022-12-18T07:04:56;-7.00;99.90
52471;DHT22;38382;53.160;7.026;2022-12-18T07:07:22;-7.00;99.90
52471;DHT22;38382;53.160;7.026;2022-12-18T07:09:49;-6.10;99.90
52471;DHT22;38382;53.160;7.026;2022-12-18T07:12:15;-7.20;99.90
52471;DHT22;38382;53.160;7.026;2022-12-18T07:14:41;-7.10;99.90
52471;DHT22;38382;53.160;7.026;2022-12-18T07:17:07;-7.20;99.90
52471;DHT22;38382;53.160;7.026;2022-12-18T07:19:33;-7.20;99.90
52471;DHT22;38382;53.160;7.026;2022-12-18T07:22:04;-7.20;99.90
52471;DHT22;38382;53.160;7.026;2022-12-18T07:24:31;-7.10;99.90
52471;DHT22;38382;53.160;7.026;2022-12-18T07:26:57;-7.10;99.90
52471;DHT22;38382;53.160;7.026;2022-12-18T07:29:23;-7.10;99.90
52471;DHT22;38382;53.160;7.026;2022-12-18T07:31:49;-5.70;99.90
52471;DHT22;38382;53.160;7.026;2022-12-18T07:34:14;-7.10;99.90
52471;DHT22;38382;53.160;7.026;2022-12-18T07:36:40;-7.10;99.90
52471;DHT22;38382;53.160;7.026;2022-12-18T07:39:07;-7.10;99.90
52471;DHT22;38382;53.160;7.026;2022-12-18T07:41:32;-7.00;99.90
52471;DHT22;38382;53.160;7.026;2022-12-18T07:43:58;-7.10;99.90
52471;DHT22;38382;53.160;7.026;2022-12-18T07:46:24;-7.00;99.90
52471;DHT22;38382;53.160;7.026;2022-12-18T07:48:50;-8.00;99.90
52471;DHT22;38382;53.160;7.026;2022-12-18T07:51:16;-7.00;99.90
52471;DHT22;38382;53.160;7.026;2022-12-18T07:53:41;-7.00;99.90
52471;DHT22;38382;53.160;7.026;2022-12-18T07:56:09;-7.00;99.90
52471;DHT22;38382;53.160;7.026;2022-12-18T07:58:35;-6.90;99.90
52471;DHT22;38382;53.160;7.026;2022-12-18T08:01:10;-6.90;99.90
52471;DHT22;38382;53.160;7.026;2022-12-18T08:03:36;-6.90;99.90
52471;DHT22;38382;53.160;7.026;2022-12-18T08:06:08;-6.90;99.90
52471;DHT22;38382;53.160;7.026;2022-12-18T08:08:34;-5.90;99.90
52471;DHT22;38382;53.160;7.026;2022-12-18T08:11:00;-6.90;99.90
52471;DHT22;38382;53.160;7.026;2022-12-18T08:13:26;-6.80;99.90
52471;DHT22;38382;53.160;7.026;2022-12-18T08:16:03;-5.30;99.90
52471;DHT22;38382;53.160;7.026;2022-12-18T08:18:31;-6.70;99.90
52471;DHT22;38382;53.160;7.026;2022-12-18T08:20:57;-6.70;99.90
52471;DHT22;38382;53.160;7.026;2022-12-18T08:23:23;-6.60;99.90
52471;DHT22;38382;53.160;7.026;2022-12-18T08:25:49;-4.60;99.90
52471;DHT22;38382;53.160;7.026;2022-12-18T08:28:15;-5.60;99.90
52471;DHT22;38382;53.160;7.026;2022-12-18T08:30:41;-6.60;99.90
52471;DHT22;38382;53.160;7.026;2022-12-18T08:33:08;-6.50;99.90
52471;DHT22;38382;53.160;7.026;2022-12-18T08:35:36;-3.80;99.90
52471;DHT22;38382;53.160;7.026;2022-12-18T08:38:03;-6.40;99.90
52471;DHT22;38382;53.160;7.026;2022-12-18T08:40:29;-4.10;99.90
52471;DHT22;38382;53.160;7.026;2022-12-18T08:42:54;-6.30;99.90
52471;DHT22;38382;53.160;7.026;2022-12-18T08:45:38;-6.30;99.90
52471;DHT22;38382;53.160;7.026;2022-12-18T08:48:04;-6.40;99.90
52471;DHT22;38382;53.160;7.026;2022-12-18T08:50:30;-6.20;99.90
52471;DHT22;38382;53.160;7.026;2022-12-18T08:52:56;-6.10;99.90
52471;DHT22;38382;53.160;7.026;2022-12-18T08:55:21;-6.10;99.90
52471;DHT22;38382;53.160;7.026;2022-12-18T08:57:50;-6.10;99.90
52471;DHT22;38382;53.160;7.026;2022-12-18T09:00:16;-6.00;99.90
52471;DHT22;38382;53.160;7.026;2022-12-18T09:02:42;-5.90;99.90
52471;DHT22;38382;53.160;7.026;2022-12-18T09:05:08;-5.90;99.90
52471;DHT22;38382;53.160;7.026;2022-12-18T09:07:34;-5.80;99.90
52471;DHT22;38382;53.160;7.026;2022-12-18T09:10:00;-5.80;99.90
52471;DHT22;38382;53.160;7.026;2022-12-18T09:14:51;-5.60;99.90
52471;DHT22;38382;53.160;7.026;2022-12-18T09:17:17;-3.90;99.90
52471;DHT22;38382;53.160;7.026;2022-12-18T09:19:43;-5.50;99.90
52471;DHT22;38382;53.160;7.026;2022-12-18T09:22:09;-5.50;99.90
52471;DHT22;38382;53.160;7.026;2022-12-18T09:24:35;-4.30;99.90
52471;DHT22;38382;53.160;7.026;2022-12-18T09:27:01;-5.40;99.90
52471;DHT22;38382;53.160;7.026;2022-12-18T09:29:27;-5.30;99.90
52471;DHT22;38382;53.160;7.026;2022-12-18T09:31:52;-5.20;99.90
52471;DHT22;38382;53.160;7.026;2022-12-18T09:34:18;-5.10;99.90
52471;DHT22;38382;53.160;7.026;2022-12-18T09:36:46;-3.50;99.90
52471;DHT22;38382;53.160;7.026;2022-12-18T09:39:12;-4.90;99.90
52471;DHT22;38382;53.160;7.026;2022-12-18T09:41:41;-4.80;99.90
52471;DHT22;38382;53.160;7.026;2022-12-18T09:49:36;-4.40;99.90
52471;DHT22;38382;53.160;7.026;2022-12-18T09:54:36;-4.20;99.90
52471;DHT22;38382;53.160;7.026;2022-12-18T09:57:04;-2.90;99.90
52471;DHT22;38382;53.160;7.026;2022-12-18T09:59:38;-3.30;99.90
52471;DHT22;38382;53.160;7.026;2022-12-18T10:02:31;-3.90;99.90
52471;DHT22;38382;53.160;7.026;2022-12-18T10:05:13;-3.90;99.90
52471;DHT22;38382;53.160;7.026;2022-12-18T10:07:59;-3.90;99.90
52471;DHT22;38382;53.160;7.026;2022-12-18T10:10:35;-3.90;99.90
52471;DHT22;38382;53.160;7.026;2022-12-18T10:13:18;-3.90;99.90
52471;DHT22;38382;53.160;7.026;2022-12-18T10:16:14;-3.90;99.90
52471;DHT22;38382;53.160;7.026;2022-12-18T10:19:00;-3.80;99.90
52471;DHT22;38382;53.160;7.026;2022-12-18T10:21:36;-3.80;99.90
52471;DHT22;38382;53.160;7.026;2022-12-18T10:26:49;-3.60;99.90
52471;DHT22;38382;53.160;7.026;2022-12-18T10:29:16;-1.70;99.90
52471;DHT22;38382;53.160;7.026;2022-12-18T10:31:42;-1.90;99.90
52471;DHT22;38382;53.160;7.026;2022-12-18T10:34:12;-0.40;99.90
52471;DHT22;38382;53.160;7.026;2022-12-18T10:36:38;-0.80;99.90
52471;DHT22;38382;53.160;7.026;2022-12-18T10:39:22;-0.30;99.90
52471;DHT22;38382;53.160;7.026;2022-12-18T10:42:10;-0.80;99.90
52471;DHT22;38382;53.160;7.026;2022-12-18T10:44:36;-1.00;99.90
52471;DHT22;38382;53.160;7.026;2022-12-18T10:47:10;-2.00;99.90
52471;DHT22;38382;53.160;7.026;2022-12-18T10:49:38;0.10;99.90
52471;DHT22;38382;53.160;7.026;2022-12-18T10:52:27;-0.40;99.90
52471;DHT22;38382;53.160;7.026;2022-12-18T10:55:02;0.20;99.90
52471;DHT22;38382;53.160;7.026;2022-12-18T11:00:18;-2.00;99.90
52471;DHT22;38382;53.160;7.026;2022-12-18T11:02:45;-0.10;99.90
52471;DHT22;38382;53.160;7.026;2022-12-18T11:05:43;-2.00;99.90
52471;DHT22;38382;53.160;7.026;2022-12-18T11:08:20;-2.10;99.90
52471;DHT22;38382;53.160;7.026;2022-12-18T11:10:48;-0.30;99.90
52471;DHT22;38382;53.160;7.026;2022-12-18T11:13:19;-2.20;99.90
52471;DHT22;38382;53.160;7.026;2022-12-18T11:15:46;-2.10;99.90
52471;DHT22;38382;53.160;7.026;2022-12-18T11:18:28;-2.10;99.90
52471;DHT22;38382;53.160;7.026;2022-12-18T11:21:10;-0.70;99.90
52471;DHT22;38382;53.160;7.026;2022-12-18T11:23:37;-2.10;99.90
52471;DHT22;38382;53.160;7.026;2022-12-18T11:26:08;-0.30;99.90
52471;DHT22;38382;53.160;7.026;2022-12-18T11:28:40;0.10;99.90
52471;DHT22;38382;53.160;7.026;2022-12-18T11:36:31;-2.00;99.90
52471;DHT22;38382;53.160;7.026;2022-12-18T11:39:02;-2.00;99.90
52471;DHT22;38382;53.160;7.026;2022-12-18T11:41:52;-0.20;99.90
52471;DHT22;38382;53.160;7.026;2022-12-18T11:47:37;-1.90;99.90
52471;DHT22;38382;53.160;7.026;2022-12-18T11:50:38;-0.30;99.90
52471;DHT22;38382;53.160;7.026;2022-12-18T11:52:56;-1.30;99.90
52471;DHT22;38382;53.160;7.026;2022-12-18T11:55:27;-1.40;99.90
52471;DHT22;38382;53.160;7.026;2022-12-18T11:58:07;-1.70;99.90
52471;DHT22;38382;53.160;7.026;2022-12-18T12:00:43;-1.70;99.90
52471;DHT22;38382;53.160;7.026;2022-12-18T12:03:35;-1.70;99.90
52471;DHT22;38382;53.160;7.026;2022-12-18T12:09:26;-1.60;99.90
52471;DHT22;38382;53.160;7.026;2022-12-18T12:25:26;-1.60;99.90
52471;DHT22;38382;53.160;7.026;2022-12-18T12:28:13;-0.30;99.90
52471;DHT22;38382;53.160;7.026;2022-12-18T12:31:11;-1.50;99.90
52471;DHT22;38382;53.160;7.026;2022-12-18T12:36:51;-1.50;99.90
52471;DHT22;38382;53.160;7.026;2022-12-18T12:39:22;-1.50;99.90
52471;DHT22;38382;53.160;7.026;2022-12-18T12:41:50;-1.50;99.90
52471;DHT22;38382;53.160;7.026;2022-12-18T12:44:55;-0.10;99.90
52471;DHT22;38382;53.160;7.026;2022-12-18T12:49:48;-1.50;99.90
52471;DHT22;38382;53.160;7.026;2022-12-18T12:52:31;-1.50;99.90
52471;DHT22;38382;53.160;7.026;2022-12-18T12:54:59;-1.40;99.90
52471;DHT22;38382;53.160;7.026;2022-12-18T12:57:38;-1.50;99.90
52471;DHT22;38382;53.160;7.026;2022-12-18T13:00:08;-2.20;99.90
52471;DHT22;38382;53.160;7.026;2022-12-18T13:05:34;-1.40;99.90
52471;DHT22;38382;53.160;7.026;2022-12-18T13:08:28;-1.40;99.90
52471;DHT22;38382;53.160;7.026;2022-12-18T13:10:56;-1.40;99.90
52471;DHT22;38382;53.160;7.026;2022-12-18T13:13:52;-1.40;99.90
52471;DHT22;38382;53.160;7.026;2022-12-18T13:16:20;0.60;99.90
52471;DHT22;38382;53.160;7.026;2022-12-18T13:18:51;0.40;99.90
52471;DHT22;38382;53.160;7.026;2022-12-18T13:21:21;-0.50;99.90
52471;DHT22;38382;53.160;7.026;2022-12-18T13:23:49;-0.90;99.90
52471;DHT22;38382;53.160;7.026;2022-12-18T13:34:23;-1.40;99.90
52471;DHT22;38382;53.160;7.026;2022-12-18T13:36:51;-1.40;99.90
52471;DHT22;38382;53.160;7.026;2022-12-18T13:41:45;0.40;99.90
52471;DHT22;38382;53.160;7.026;2022-12-18T13:44:24;0.80;99.90
52471;DHT22;38382;53.160;7.026;2022-12-18T13:46:50;-1.80;99.90
52471;DHT22;38382;53.160;7.026;2022-12-18T13:51:55;-1.50;99.90
52471;DHT22;38382;53.160;7.026;2022-12-18T13:54:39;-1.60;99.90
52471;DHT22;38382;53.160;7.026;2022-12-18T13:57:30;-1.60;99.90
52471;DHT22;38382;53.160;7.026;2022-12-18T13:59:57;-1.60;99.90
52471;DHT22;38382;53.160;7.026;2022-12-18T14:02:27;-1.60;99.90
52471;DHT22;38382;53.160;7.026;2022-12-18T14:04:55;0.00;99.90
52471;DHT22;38382;53.160;7.026;2022-12-18T14:07:24;-1.70;99.90
52471;DHT22;38382;53.160;7.026;2022-12-18T14:09:58;0.10;99.90
52471;DHT22;38382;53.160;7.026;2022-12-18T14:12:33;0.50;99.90
52471;DHT22;38382;53.160;7.026;2022-12-18T14:17:53;-1.80;99.90
52471;DHT22;38382;53.160;7.026;2022-12-18T14:20:19;-2.00;99.90
52471;DHT22;38382;53.160;7.026;2022-12-18T14:22:47;-0.20;99.90
52471;DHT22;38382;53.160;7.026;2022-12-18T14:25:26;-1.00;99.90
52471;DHT22;38382;53.160;7.026;2022-12-18T14:28:03;-1.00;99.90
52471;DHT22;38382;53.160;7.026;2022-12-18T14:30:43;-2.00;99.90
52471;DHT22;38382;53.160;7.026;2022-12-18T14:33:22;-2.00;99.90
52471;DHT22;38382;53.160;7.026;2022-12-18T14:40:51;-2.20;99.90
52471;DHT22;38382;53.160;7.026;2022-12-18T14:43:17;-0.30;99.90
52471;DHT22;38382;53.160;7.026;2022-12-18T14:45:44;-2.30;99.90
52471;DHT22;38382;53.160;7.026;2022-12-18T14:50:37;-2.30;99.90
52471;DHT22;38382;53.160;7.026;2022-12-18T14:53:03;-0.50;99.90
52471;DHT22;38382;53.160;7.026;2022-12-18T14:55:29;-1.30;99.90
52471;DHT22;38382;53.160;7.026;2022-12-18T14:57:56;-0.40;99.90
52471;DHT22;38382;53.160;7.026;2022-12-18T15:00:24;-2.40;99.90
52471;DHT22;38382;53.160;7.026;2022-12-18T15:02:55;-2.40;99.90
52471;DHT22;38382;53.160;7.026;2022-12-18T15:05:31;-1.20;99.90
52471;DHT22;38382;53.160;7.026;2022-12-18T15:07:59;-1.20;99.90
52471;DHT22;38382;53.160;7.026;2022-12-18T15:21:10;-2.60;99.90
52471;DHT22;38382;53.160;7.026;2022-12-18T15:23:45;-2.50;99.90
52471;DHT22;38382;53.160;7.026;2022-12-18T15:26:14;-2.50;99.90
52471;DHT22;38382;53.160;7.026;2022-12-18T15:28:48;-1.20;99.90
52471;DHT22;38382;53.160;7.026;2022-12-18T15:33:59;-2.50;99.90
52471;DHT22;38382;53.160;7.026;2022-12-18T15:36:26;-0.70;99.90
52471;DHT22;38382;53.160;7.026;2022-12-18T15:38:53;-2.50;99.90
52471;DHT22;38382;53.160;7.026;2022-12-18T15:41:21;-1.70;99.90
52471;DHT22;38382;53.160;7.026;2022-12-18T15:43:49;-2.50;99.90
52471;DHT22;38382;53.160;7.026;2022-12-18T15:48:48;-1.40;99.90
52471;DHT22;38382;53.160;7.026;2022-12-18T15:51:17;-2.20;99.90
52471;DHT22;38382;53.160;7.026;2022-12-18T15:53:44;-3.30;99.90
52471;DHT22;38382;53.160;7.026;2022-12-18T15:56:12;-2.60;99.90
52471;DHT22;38382;53.160;7.026;2022-12-18T15:58:56;-2.40;99.90
52471;DHT22;38382;53.160;7.026;2022-12-18T16:01:25;-2.60;99.90
52471;DHT22;38382;53.160;7.026;2022-12-18T16:03:51;-2.50;99.90
52471;DHT22;38382;53.160;7.026;2022-12-18T16:06:17;-2.60;99.90
52471;DHT22;38382;53.160;7.026;2022-12-18T16:08:42;-2.00;99.90
52471;DHT22;38382;53.160;7.026;2022-12-18T16:11:20;-2.60;99.90
52471;DHT22;38382;53.160;7.026;2022-12-18T16:14:05;-2.50;99.90
52471;DHT22;38382;53.160;7.026;2022-12-18T16:16:31;-3.30;99.90
52471;DHT22;38382;53.160;7.026;2022-12-18T16:18:57;-2.60;99.90
52471;DHT22;38382;53.160;7.026;2022-12-18T16:21:22;-2.50;99.90
52471;DHT22;38382;53.160;7.026;2022-12-18T16:23:48;-1.10;99.90
52471;DHT22;38382;53.160;7.026;2022-12-18T16:26:14;-2.50;99.90
52471;DHT22;38382;53.160;7.026;2022-12-18T16:28:39;-2.50;99.90
52471;DHT22;38382;53.160;7.026;2022-12-18T16:31:05;-1.40;99.90
52471;DHT22;38382;53.160;7.026;2022-12-18T16:33:31;-2.50;99.90
52471;DHT22;38382;53.160;7.026;2022-12-18T16:35:56;-2.50;99.90
52471;DHT22;38382;53.160;7.026;2022-12-18T16:38:22;-0.30;99.90
52471;DHT22;38382;53.160;7.026;2022-12-18T16:40:48;-0.70;99.90
52471;DHT22;38382;53.160;7.026;2022-12-18T16:43:32;-0.50;99.90
52471;DHT22;38382;53.160;7.026;2022-12-18T16:45:58;-1.50;99.90
52471;DHT22;38382;53.160;7.026;2022-12-18T16:48:24;-2.40;99.90
52471;DHT22;38382;53.160;7.026;2022-12-18T16:50:50;-2.30;99.90
52471;DHT22;38382;53.160;7.026;2022-12-18T16:53:24;-2.30;99.90
52471;DHT22;38382;53.160;7.026;2022-12-18T16:55:54;-0.80;99.90
52471;DHT22;38382;53.160;7.026;2022-12-18T16:58:20;-2.30;99.90
52471;DHT22;38382;53.160;7.026;2022-12-18T17:00:46;-2.30;99.90
52471;DHT22;38382;53.160;7.026;2022-12-18T17:03:11;-2.40;99.90
52471;DHT22;38382;53.160;7.026;2022-12-18T17:05:37;-2.30;99.90
52471;DHT22;38382;53.160;7.026;2022-12-18T17:08:03;-2.20;99.90
52471;DHT22;38382;53.160;7.026;2022-12-18T17:10:29;-2.20;99.90
52471;DHT22;38382;53.160;7.026;2022-12-18T17:12:55;-2.20;99.90
52471;DHT22;38382;53.160;7.026;2022-12-18T17:15:24;-0.30;99.90
52471;DHT22;38382;53.160;7.026;2022-12-18T17:17:50;-2.10;99.90
52471;DHT22;38382;53.160;7.026;2022-12-18T17:20:15;-2.10;99.90
52471;DHT22;38382;53.160;7.026;2022-12-18T17:22:41;-2.10;99.90
52471;DHT22;38382;53.160;7.026;2022-12-18T17:25:07;-2.10;99.90
52471;DHT22;38382;53.160;7.026;2022-12-18T17:27:33;-2.00;99.90
52471;DHT22;38382;53.160;7.026;2022-12-18T17:29:58;-1.50;99.90
52471;DHT22;38382;53.160;7.026;2022-12-18T17:32:24;-0.70;99.90
52471;DHT22;38382;53.160;7.026;2022-12-18T17:34:50;-1.90;99.90
52471;DHT22;38382;53.160;7.026;2022-12-18T17:37:16;-1.90;99.90
52471;DHT22;38382;53.160;7.026;2022-12-18T17:39:41;-1.90;99.90
52471;DHT22;38382;53.160;7.026;2022-12-18T17:42:08;-1.90;99.90